createdAt,value
2018-04-30T00:02:51.989Z,15.91
2018-04-30T00:07:51.761Z,15.90
2018-04-30T00:12:47.611Z,15.88
2018-04-30T00:17:43.091Z,15.92
2018-04-30T00:22:38.997Z,15.88
2018-04-30T00:27:35.793Z,15.92
2018-04-30T00:32:34.953Z,15.95
2018-04-30T00:37:33.911Z,15.67
2018-04-30T00:42:29.175Z,15.37
2018-04-30T00:47:28.993Z,15.39
2018-04-30T00:52:24.770Z,15.03
2018-04-30T00:57:20.366Z,14.55
2018-04-30T01:02:17.118Z,14.20
2018-04-30T01:07:12.546Z,14.03
2018-04-30T01:12:11.976Z,13.81
2018-04-30T01:17:10.687Z,13.81
2018-04-30T01:22:06.472Z,13.53
2018-04-30T01:27:01.863Z,13.41
2018-04-30T01:31:57.670Z,13.23
2018-04-30T01:36:53.471Z,13.28
2018-04-30T01:41:52.904Z,13.28
2018-04-30T01:46:47.767Z,12.91
2018-04-30T01:51:44.243Z,12.87
2018-04-30T01:56:39.824Z,13.03
2018-04-30T02:01:35.641Z,12.87
2018-04-30T02:06:31.262Z,12.83
2018-04-30T02:11:28.183Z,12.93
2018-04-30T02:16:23.562Z,12.90
2018-04-30T02:21:19.623Z,12.85
2018-04-30T02:26:15.116Z,12.80
2018-04-30T02:31:10.607Z,12.62
2018-04-30T02:36:06.524Z,12.60
2018-04-30T02:41:02.250Z,12.65
2018-04-30T02:46:03.009Z,12.60
2018-04-30T02:50:58.556Z,12.42
2018-04-30T02:55:59.530Z,12.61
2018-04-30T03:00:58.217Z,12.54
2018-04-30T03:05:53.716Z,12.57
2018-04-30T03:10:49.567Z,12.54
2018-04-30T03:15:45.708Z,12.86
2018-04-30T03:20:42.406Z,12.97
2018-04-30T03:25:38.412Z,12.83
2018-04-30T03:30:33.929Z,12.73
2018-04-30T03:35:29.963Z,12.54
2018-04-30T03:40:25.427Z,12.37
2018-04-30T03:45:21.835Z,12.78
2018-04-30T03:50:17.738Z,12.55
2018-04-30T03:55:17.564Z,12.70
2018-04-30T04:00:12.539Z,13.00
2018-04-30T04:05:12.414Z,12.86
2018-04-30T04:10:07.442Z,13.05
2018-04-30T04:15:03.582Z,13.35
2018-04-30T04:19:59.887Z,13.56
2018-04-30T04:24:55.633Z,13.31
2018-04-30T04:29:51.372Z,13.37
2018-04-30T04:34:47.283Z,13.27
2018-04-30T04:39:43.050Z,13.20
2018-04-30T04:44:38.638Z,13.23
2018-04-30T04:49:34.842Z,13.31
2018-04-30T04:54:30.517Z,13.30
2018-04-30T04:59:30.816Z,13.37
2018-04-30T05:04:25.820Z,13.52
2018-04-30T05:09:21.708Z,13.39
2018-04-30T05:14:18.411Z,13.46
2018-04-30T05:19:13.847Z,13.35
2018-04-30T05:24:09.651Z,13.46
2018-04-30T05:29:06.964Z,13.68
2018-04-30T05:34:02.841Z,13.65
2018-04-30T05:39:03.766Z,13.81
2018-04-30T05:44:02.708Z,13.75
2018-04-30T05:49:02.160Z,13.89
2018-04-30T05:53:58.340Z,13.89
2018-04-30T05:58:54.748Z,13.79
2018-04-30T06:03:50.238Z,13.90
2018-04-30T06:08:50.025Z,13.89
2018-04-30T06:13:46.070Z,14.05
2018-04-30T06:18:41.925Z,14.07
2018-04-30T06:23:38.955Z,14.15
2018-04-30T06:28:39.535Z,14.20
2018-04-30T06:33:38.065Z,14.23
2018-04-30T06:38:33.236Z,14.14
2018-04-30T06:43:30.286Z,14.00
2018-04-30T06:48:25.676Z,14.15
2018-04-30T06:53:21.614Z,14.22
2018-04-30T06:58:21.330Z,14.20
2018-04-30T07:03:17.107Z,14.26
2018-04-30T07:08:17.713Z,14.32
2018-04-30T07:13:12.346Z,14.33
2018-04-30T07:18:12.214Z,14.35
2018-04-30T07:23:07.361Z,14.51
2018-04-30T07:28:03.748Z,14.47
2018-04-30T07:32:59.809Z,14.66
2018-04-30T07:37:57.061Z,14.88
2018-04-30T07:42:52.748Z,14.77
2018-04-30T07:52:49.580Z,14.65
2018-04-30T08:02:46.358Z,14.65
2018-04-30T08:07:42.767Z,14.70
2018-04-30T08:12:38.210Z,14.47
2018-04-30T08:17:37.810Z,14.53
2018-04-30T08:22:37.607Z,14.28
2018-04-30T08:27:36.212Z,14.07
2018-04-30T08:32:35.822Z,13.93
2018-04-30T08:37:30.584Z,13.74
2018-04-30T08:42:27.378Z,13.75
2018-04-30T08:47:22.810Z,13.77
2018-04-30T08:52:18.373Z,13.57
2018-04-30T08:57:14.525Z,13.67
2018-04-30T09:02:10.579Z,13.53
2018-04-30T09:07:06.513Z,13.19
2018-04-30T09:12:03.450Z,13.28
2018-04-30T09:16:58.974Z,13.19
2018-04-30T09:21:58.993Z,13.04
2018-04-30T09:26:53.731Z,12.97
2018-04-30T09:31:54.024Z,12.95
2018-04-30T09:36:49.239Z,13.04
2018-04-30T09:41:48.759Z,13.05
2018-04-30T09:46:48.158Z,13.04
2018-04-30T09:51:46.958Z,13.18
2018-04-30T09:56:46.520Z,13.19
2018-04-30T10:01:41.217Z,13.33
2018-04-30T10:06:37.183Z,13.27
2018-04-30T10:11:33.809Z,13.44
2018-04-30T10:16:33.345Z,13.46
2018-04-30T10:21:28.173Z,13.47
2018-04-30T10:26:23.872Z,13.57
2018-04-30T10:31:24.792Z,13.59
2018-04-30T10:36:24.647Z,13.86
2018-04-30T10:41:23.755Z,14.00
2018-04-30T10:46:19.463Z,14.33
2018-04-30T10:51:15.654Z,14.30
2018-04-30T10:56:15.559Z,14.30
2018-04-30T11:01:14.573Z,14.55
2018-04-30T11:06:13.272Z,14.50
2018-04-30T11:11:08.396Z,14.79
2018-04-30T11:16:07.276Z,16.09
2018-04-30T11:21:09.514Z,17.01
2018-04-30T11:26:07.793Z,18.18
2018-04-30T11:31:03.616Z,17.90
2018-04-30T11:36:02.218Z,18.37
2018-04-30T11:40:58.677Z,18.28
2018-04-30T11:45:51.801Z,16.94
2018-04-30T11:50:45.084Z,16.65
2018-04-30T11:55:45.224Z,16.08
2018-04-30T12:00:39.054Z,15.92
2018-04-30T12:05:35.164Z,16.02
2018-04-30T12:10:31.384Z,16.29
2018-04-30T12:15:26.881Z,16.42
2018-04-30T12:20:23.623Z,16.20
2018-04-30T12:25:18.810Z,16.24
2018-04-30T12:30:15.655Z,16.08
2018-04-30T12:35:11.892Z,16.15
2018-04-30T12:40:08.868Z,16.16
2018-04-30T12:45:04.793Z,16.38
2018-04-30T12:50:01.061Z,16.60
2018-04-30T12:54:57.202Z,16.86
2018-04-30T12:59:53.473Z,16.86
2018-04-30T13:04:49.200Z,16.60
2018-04-30T13:09:45.005Z,16.71
2018-04-30T13:14:41.639Z,17.06
2018-04-30T13:19:41.084Z,16.61
2018-04-30T13:24:35.312Z,16.33
2018-04-30T13:29:34.747Z,16.17
2018-04-30T13:34:29.451Z,16.05
2018-04-30T13:39:25.034Z,15.94
2018-04-30T13:44:21.112Z,16.13
2018-04-30T13:49:16.891Z,16.09
2018-04-30T13:54:12.470Z,15.98
2018-04-30T13:59:11.896Z,15.82
2018-04-30T14:04:06.723Z,15.39
2018-04-30T14:09:06.269Z,15.27
2018-04-30T14:14:01.070Z,15.22
2018-04-30T14:19:01.836Z,15.22
2018-04-30T14:23:57.606Z,15.47
2018-04-30T14:28:58.869Z,15.95
2018-04-30T14:33:54.409Z,15.94
2018-04-30T14:38:50.264Z,16.02
2018-04-30T14:43:45.947Z,15.97
2018-04-30T14:48:45.570Z,16.17
2018-04-30T14:53:44.501Z,16.26
2018-04-30T14:58:43.381Z,15.90
2018-04-30T15:03:38.199Z,15.64
2018-04-30T15:08:34.749Z,15.24
2018-04-30T15:13:30.424Z,15.17
2018-04-30T15:18:30.016Z,15.18
2018-04-30T15:23:24.611Z,15.02
2018-04-30T15:28:24.456Z,15.18
2018-04-30T15:33:19.551Z,15.10
2018-04-30T15:38:15.062Z,15.09
2018-04-30T15:43:12.332Z,15.27
2018-04-30T15:48:11.957Z,15.19
2018-04-30T15:53:07.784Z,15.09
2018-04-30T15:58:04.271Z,15.14
2018-04-30T16:03:03.705Z,15.02
2018-04-30T16:08:03.951Z,14.99
2018-04-30T16:12:59.495Z,14.85
2018-04-30T16:17:54.901Z,14.68
2018-04-30T16:22:51.147Z,14.70
2018-04-30T16:27:50.792Z,14.62
2018-04-30T16:32:50.741Z,14.53
2018-04-30T16:37:46.353Z,14.58
2018-04-30T16:42:42.093Z,14.45
2018-04-30T16:47:42.612Z,14.32
2018-04-30T16:52:41.367Z,14.26
2018-04-30T16:57:37.245Z,14.25
2018-04-30T17:02:33.199Z,14.28
2018-04-30T17:07:29.180Z,14.29
2018-04-30T17:12:28.816Z,14.20
2018-04-30T17:17:23.558Z,14.23
2018-04-30T17:22:19.584Z,14.03
2018-04-30T17:27:15.696Z,14.00
2018-04-30T17:32:11.174Z,14.04
2018-04-30T17:37:07.370Z,13.87
2018-04-30T17:42:08.306Z,13.85
2018-04-30T17:47:02.990Z,13.90
2018-04-30T17:51:58.726Z,13.92
2018-04-30T17:56:55.509Z,13.81
2018-04-30T18:01:51.066Z,13.92
2018-04-30T18:06:50.846Z,13.96
2018-04-30T18:11:46.470Z,13.85
2018-04-30T18:16:42.226Z,13.87
2018-04-30T18:21:38.334Z,13.77
2018-04-30T18:26:33.951Z,13.81
2018-04-30T18:31:33.622Z,13.86
2018-04-30T18:36:29.425Z,13.79
2018-04-30T18:41:25.040Z,13.83
2018-04-30T18:46:21.775Z,13.79
2018-04-30T18:51:17.949Z,13.74
2018-04-30T18:56:13.852Z,13.78
2018-04-30T19:01:09.780Z,13.62
2018-04-30T19:06:05.858Z,13.54
2018-04-30T19:11:01.548Z,13.57
2018-04-30T19:15:57.260Z,13.31
2018-04-30T19:20:52.653Z,13.27
2018-04-30T19:25:52.518Z,13.04
2018-04-30T19:30:47.271Z,12.98
2018-04-30T19:35:44.439Z,12.90
2018-04-30T19:40:43.772Z,12.68
2018-04-30T19:45:38.232Z,12.72
2018-04-30T19:50:34.527Z,12.53
2018-04-30T19:55:31.255Z,12.57
2018-04-30T20:00:27.532Z,12.47
2018-04-30T20:05:25.933Z,12.57
2018-04-30T20:10:21.850Z,12.54
2018-04-30T20:15:21.768Z,12.54
2018-04-30T20:20:16.698Z,12.58
2018-04-30T20:25:16.914Z,12.57
2018-04-30T20:30:11.665Z,12.39
2018-04-30T20:35:07.374Z,11.83
2018-04-30T20:40:06.963Z,11.30
2018-04-30T20:45:01.411Z,11.02
2018-04-30T20:50:00.509Z,10.71
2018-04-30T20:54:56.178Z,10.40
2018-04-30T20:59:51.571Z,10.37
2018-04-30T21:04:47.263Z,10.33
2018-04-30T21:09:47.898Z,10.28
2018-04-30T21:14:42.431Z,10.30
2018-04-30T21:19:38.245Z,10.49
2018-04-30T21:24:34.836Z,10.51
2018-04-30T21:29:31.394Z,10.57
2018-04-30T21:34:27.009Z,10.64
2018-04-30T21:39:23.815Z,10.69
2018-04-30T21:44:23.232Z,10.28
2018-04-30T21:49:18.166Z," 9.99"
2018-04-30T21:54:14.390Z," 9.94"
2018-04-30T21:59:09.909Z," 9.92"
2018-04-30T22:04:05.373Z," 9.82"
2018-04-30T22:09:01.119Z," 9.87"
2018-04-30T22:13:56.872Z," 9.89"
2018-04-30T22:18:56.677Z," 9.80"
2018-04-30T22:23:51.919Z," 9.80"
2018-04-30T22:28:47.687Z," 9.73"
2018-04-30T22:33:47.327Z," 9.64"
2018-04-30T22:38:46.528Z," 9.32"
2018-04-30T22:43:41.176Z," 9.08"
2018-04-30T22:48:36.991Z," 9.25"
2018-04-30T22:53:32.710Z," 9.48"
2018-04-30T22:58:28.902Z," 9.51"
2018-04-30T23:03:25.120Z," 9.59"
2018-04-30T23:08:21.009Z," 9.72"
2018-04-30T23:13:16.524Z," 9.55"
2018-04-30T23:18:13.086Z," 9.34"
2018-04-30T23:23:08.796Z," 9.51"
2018-04-30T23:28:08.687Z," 9.14"
2018-04-30T23:33:03.567Z," 9.06"
2018-04-30T23:38:00.366Z," 8.94"
2018-04-30T23:42:55.661Z," 8.85"
2018-04-30T23:47:55.046Z," 8.56"
2018-04-30T23:52:50.463Z," 8.69"
2018-04-30T23:57:45.640Z," 8.61"
